sensor_id;sensor_type;location;lat;lon;timestamp;P1;durP1;ratioP1;P2;durP2;ratioP2
5981;SDS011;3018;48.730;9.336;2023-08-12T00:00:06;3.53;;;3.22;;
5981;SDS011;3018;48.730;9.336;2023-08-12T00:02:36;4.07;;;3.67;;
5981;SDS011;3018;48.730;9.336;2023-08-12T00:05:02;4.20;;;3.80;;
5981;SDS011;3018;48.730;9.336;2023-08-12T00:07:29;5.90;;;3.75;;
5981;SDS011;3018;48.730;9.336;2023-08-12T00:09:57;4.00;;;3.70;;
5981;SDS011;3018;48.730;9.336;2023-08-12T00:12:24;5.10;;;4.00;;
5981;SDS011;3018;48.730;9.336;2023-08-12T00:14:50;3.95;;;3.70;;
5981;SDS011;3018;48.730;9.336;2023-08-12T00:17:18;4.30;;;3.67;;
5981;SDS011;3018;48.730;9.336;2023-08-12T00:19:44;4.55;;;4.10;;
5981;SDS011;3018;48.730;9.336;2023-08-12T00:22:11;3.92;;;3.63;;
5981;SDS011;3018;48.730;9.336;2023-08-12T00:24:38;3.95;;;3.75;;
5981;SDS011;3018;48.730;9.336;2023-08-12T00:27:05;4.03;;;3.63;;
5981;SDS011;3018;48.730;9.336;2023-08-12T00:29:31;4.28;;;4.03;;
5981;SDS011;3018;48.730;9.336;2023-08-12T00:31:58;5.05;;;3.67;;
5981;SDS011;3018;48.730;9.336;2023-08-12T00:34:25;4.03;;;3.83;;
5981;SDS011;3018;48.730;9.336;2023-08-12T00:36:52;4.25;;;3.85;;
5981;SDS011;3018;48.730;9.336;2023-08-12T00:39:18;6.47;;;3.92;;
5981;SDS011;3018;48.730;9.336;2023-08-12T00:41:45;4.00;;;3.65;;
5981;SDS011;3018;48.730;9.336;2023-08-12T00:44:11;3.88;;;3.63;;
5981;SDS011;3018;48.730;9.336;2023-08-12T00:46:38;4.47;;;4.07;;
5981;SDS011;3018;48.730;9.336;2023-08-12T00:49:06;5.40;;;3.30;;
5981;SDS011;3018;48.730;9.336;2023-08-12T00:51:34;5.05;;;4.65;;
5981;SDS011;3018;48.730;9.336;2023-08-12T00:54:01;4.53;;;4.03;;
5981;SDS011;3018;48.730;9.336;2023-08-12T00:56:28;5.40;;;3.80;;
5981;SDS011;3018;48.730;9.336;2023-08-12T00:58:56;11.10;;;4.20;;
5981;SDS011;3018;48.730;9.336;2023-08-12T01:01:22;5.10;;;4.35;;
5981;SDS011;3018;48.730;9.336;2023-08-12T01:03:49;6.72;;;4.25;;
5981;SDS011;3018;48.730;9.336;2023-08-12T01:06:15;4.22;;;3.90;;
5981;SDS011;3018;48.730;9.336;2023-08-12T01:08:43;7.10;;;4.65;;
5981;SDS011;3018;48.730;9.336;2023-08-12T01:11:12;6.00;;;4.88;;
5981;SDS011;3018;48.730;9.336;2023-08-12T01:13:41;5.22;;;4.80;;
5981;SDS011;3018;48.730;9.336;2023-08-12T01:16:09;4.55;;;4.13;;
5981;SDS011;3018;48.730;9.336;2023-08-12T01:18:36;5.55;;;4.10;;
5981;SDS011;3018;48.730;9.336;2023-08-12T01:21:03;4.15;;;3.75;;
5981;SDS011;3018;48.730;9.336;2023-08-12T01:23:33;4.75;;;3.88;;
5981;SDS011;3018;48.730;9.336;2023-08-12T01:25:59;4.47;;;4.07;;
5981;SDS011;3018;48.730;9.336;2023-08-12T01:28:26;4.97;;;3.83;;
5981;SDS011;3018;48.730;9.336;2023-08-12T01:30:54;4.50;;;4.10;;
5981;SDS011;3018;48.730;9.336;2023-08-12T01:33:24;3.63;;;3.47;;
5981;SDS011;3018;48.730;9.336;2023-08-12T01:35:53;5.68;;;3.90;;
5981;SDS011;3018;48.730;9.336;2023-08-12T01:38:21;4.40;;;4.15;;
5981;SDS011;3018;48.730;9.336;2023-08-12T01:40:49;5.43;;;4.30;;
5981;SDS011;3018;48.730;9.336;2023-08-12T01:43:17;7.40;;;4.05;;
5981;SDS011;3018;48.730;9.336;2023-08-12T01:45:43;6.72;;;4.53;;
5981;SDS011;3018;48.730;9.336;2023-08-12T01:48:10;5.32;;;4.82;;
5981;SDS011;3018;48.730;9.336;2023-08-12T01:50:36;7.07;;;4.38;;
5981;SDS011;3018;48.730;9.336;2023-08-12T01:53:03;5.85;;;4.60;;
5981;SDS011;3018;48.730;9.336;2023-08-12T01:55:29;4.72;;;4.32;;
5981;SDS011;3018;48.730;9.336;2023-08-12T01:57:57;7.32;;;4.10;;
5981;SDS011;3018;48.730;9.336;2023-08-12T02:00:23;4.45;;;4.00;;
5981;SDS011;3018;48.730;9.336;2023-08-12T02:02:50;4.35;;;3.78;;
5981;SDS011;3018;48.730;9.336;2023-08-12T02:05:16;7.40;;;4.22;;
5981;SDS011;3018;48.730;9.336;2023-08-12T02:07:42;5.68;;;4.70;;
5981;SDS011;3018;48.730;9.336;2023-08-12T02:10:10;6.30;;;4.93;;
5981;SDS011;3018;48.730;9.336;2023-08-12T02:12:36;6.85;;;5.10;;
5981;SDS011;3018;48.730;9.336;2023-08-12T02:15:04;7.57;;;5.18;;
5981;SDS011;3018;48.730;9.336;2023-08-12T02:17:31;8.30;;;5.18;;
5981;SDS011;3018;48.730;9.336;2023-08-12T02:19:57;8.18;;;5.43;;
5981;SDS011;3018;48.730;9.336;2023-08-12T02:22:24;8.88;;;5.55;;
5981;SDS011;3018;48.730;9.336;2023-08-12T02:24:50;10.70;;;5.18;;
5981;SDS011;3018;48.730;9.336;2023-08-12T02:27:17;6.47;;;4.95;;
5981;SDS011;3018;48.730;9.336;2023-08-12T02:29:44;11.05;;;5.45;;
5981;SDS011;3018;48.730;9.336;2023-08-12T02:32:12;8.85;;;5.22;;
5981;SDS011;3018;48.730;9.336;2023-08-12T02:34:38;8.75;;;5.13;;
5981;SDS011;3018;48.730;9.336;2023-08-12T02:37:04;6.55;;;4.97;;
5981;SDS011;3018;48.730;9.336;2023-08-12T02:39:31;5.93;;;4.75;;
5981;SDS011;3018;48.730;9.336;2023-08-12T02:41:57;6.40;;;5.28;;
5981;SDS011;3018;48.730;9.336;2023-08-12T02:44:24;6.13;;;5.30;;
5981;SDS011;3018;48.730;9.336;2023-08-12T02:46:50;8.98;;;5.72;;
5981;SDS011;3018;48.730;9.336;2023-08-12T02:49:18;13.18;;;5.40;;
5981;SDS011;3018;48.730;9.336;2023-08-12T02:51:44;11.35;;;5.75;;
5981;SDS011;3018;48.730;9.336;2023-08-12T02:54:10;15.10;;;7.80;;
5981;SDS011;3018;48.730;9.336;2023-08-12T02:56:37;17.73;;;7.95;;
5981;SDS011;3018;48.730;9.336;2023-08-12T02:59:03;15.75;;;7.95;;
5981;SDS011;3018;48.730;9.336;2023-08-12T03:04:31;14.85;;;6.85;;
5981;SDS011;3018;48.730;9.336;2023-08-12T03:06:58;15.98;;;7.55;;
5981;SDS011;3018;48.730;9.336;2023-08-12T03:09:24;16.23;;;6.45;;
5981;SDS011;3018;48.730;9.336;2023-08-12T03:11:50;15.55;;;6.93;;
5981;SDS011;3018;48.730;9.336;2023-08-12T03:14:16;20.02;;;7.05;;
5981;SDS011;3018;48.730;9.336;2023-08-12T03:16:43;12.45;;;6.00;;
5981;SDS011;3018;48.730;9.336;2023-08-12T03:19:09;13.38;;;6.15;;
5981;SDS011;3018;48.730;9.336;2023-08-12T03:21:37;9.77;;;5.00;;
5981;SDS011;3018;48.730;9.336;2023-08-12T03:24:03;6.78;;;4.70;;
5981;SDS011;3018;48.730;9.336;2023-08-12T03:26:29;5.30;;;4.80;;
5981;SDS011;3018;48.730;9.336;2023-08-12T03:28:56;5.53;;;5.03;;
5981;SDS011;3018;48.730;9.336;2023-08-12T03:31:22;5.22;;;4.60;;
5981;SDS011;3018;48.730;9.336;2023-08-12T03:33:48;4.95;;;4.55;;
5981;SDS011;3018;48.730;9.336;2023-08-12T03:36:15;5.03;;;4.30;;
5981;SDS011;3018;48.730;9.336;2023-08-12T03:38:42;6.78;;;4.25;;
5981;SDS011;3018;48.730;9.336;2023-08-12T03:41:08;4.60;;;4.30;;
5981;SDS011;3018;48.730;9.336;2023-08-12T03:43:35;4.93;;;4.47;;
5981;SDS011;3018;48.730;9.336;2023-08-12T03:46:02;4.95;;;4.50;;
5981;SDS011;3018;48.730;9.336;2023-08-12T03:48:29;5.65;;;4.20;;
5981;SDS011;3018;48.730;9.336;2023-08-12T03:50:55;5.07;;;4.57;;
5981;SDS011;3018;48.730;9.336;2023-08-12T03:53:21;4.88;;;4.47;;
5981;SDS011;3018;48.730;9.336;2023-08-12T03:55:49;9.35;;;4.22;;
5981;SDS011;3018;48.730;9.336;2023-08-12T03:58:15;4.80;;;4.40;;
5981;SDS011;3018;48.730;9.336;2023-08-12T04:00:41;7.28;;;4.38;;
5981;SDS011;3018;48.730;9.336;2023-08-12T04:03:08;4.82;;;4.53;;
5981;SDS011;3018;48.730;9.336;2023-08-12T04:05:35;4.82;;;4.07;;
5981;SDS011;3018;48.730;9.336;2023-08-12T04:08:01;3.95;;;3.72;;
5981;SDS011;3018;48.730;9.336;2023-08-12T04:10:27;5.10;;;4.60;;
5981;SDS011;3018;48.730;9.336;2023-08-12T04:12:55;6.00;;;4.60;;
5981;SDS011;3018;48.730;9.336;2023-08-12T04:15:21;5.68;;;4.50;;
5981;SDS011;3018;48.730;9.336;2023-08-12T04:17:48;7.35;;;4.78;;
5981;SDS011;3018;48.730;9.336;2023-08-12T04:20:14;4.57;;;4.28;;
5981;SDS011;3018;48.730;9.336;2023-08-12T04:22:40;6.22;;;4.15;;
5981;SDS011;3018;48.730;9.336;2023-08-12T04:25:07;5.18;;;4.03;;
5981;SDS011;3018;48.730;9.336;2023-08-12T04:27:33;5.03;;;4.60;;
5981;SDS011;3018;48.730;9.336;2023-08-12T04:30:01;5.38;;;4.88;;
5981;SDS011;3018;48.730;9.336;2023-08-12T04:32:27;6.70;;;4.00;;
5981;SDS011;3018;48.730;9.336;2023-08-12T04:34:53;5.25;;;4.40;;
5981;SDS011;3018;48.730;9.336;2023-08-12T04:37:19;4.70;;;4.30;;
5981;SDS011;3018;48.730;9.336;2023-08-12T04:39:46;5.38;;;4.90;;
5981;SDS011;3018;48.730;9.336;2023-08-12T04:42:12;6.82;;;4.30;;
5981;SDS011;3018;48.730;9.336;2023-08-12T04:44:38;4.88;;;4.53;;
5981;SDS011;3018;48.730;9.336;2023-08-12T04:47:06;5.93;;;4.43;;
5981;SDS011;3018;48.730;9.336;2023-08-12T04:49:32;4.65;;;4.35;;
5981;SDS011;3018;48.730;9.336;2023-08-12T04:51:59;7.00;;;4.20;;
5981;SDS011;3018;48.730;9.336;2023-08-12T04:54:25;9.05;;;5.03;;
5981;SDS011;3018;48.730;9.336;2023-08-12T04:56:51;5.00;;;4.53;;
5981;SDS011;3018;48.730;9.336;2023-08-12T04:59:17;7.38;;;4.40;;
5981;SDS011;3018;48.730;9.336;2023-08-12T05:01:44;5.10;;;4.70;;
5981;SDS011;3018;48.730;9.336;2023-08-12T05:04:12;4.55;;;4.20;;
5981;SDS011;3018;48.730;9.336;2023-08-12T05:06:38;7.55;;;4.53;;
5981;SDS011;3018;48.730;9.336;2023-08-12T05:09:05;12.35;;;4.95;;
5981;SDS011;3018;48.730;9.336;2023-08-12T05:11:31;5.72;;;4.47;;
5981;SDS011;3018;48.730;9.336;2023-08-12T05:13:57;4.93;;;4.45;;
5981;SDS011;3018;48.730;9.336;2023-08-12T05:16:24;4.10;;;3.80;;
5981;SDS011;3018;48.730;9.336;2023-08-12T05:18:50;5.32;;;4.07;;
5981;SDS011;3018;48.730;9.336;2023-08-12T05:21:18;4.57;;;4.28;;
5981;SDS011;3018;48.730;9.336;2023-08-12T05:23:44;5.07;;;4.32;;
5981;SDS011;3018;48.730;9.336;2023-08-12T05:26:10;5.72;;;4.35;;
5981;SDS011;3018;48.730;9.336;2023-08-12T05:28:37;10.57;;;4.47;;
5981;SDS011;3018;48.730;9.336;2023-08-12T05:31:03;6.00;;;4.65;;
5981;SDS011;3018;48.730;9.336;2023-08-12T05:33:29;4.82;;;4.43;;
5981;SDS011;3018;48.730;9.336;2023-08-12T05:35:55;5.05;;;4.57;;
5981;SDS011;3018;48.730;9.336;2023-08-12T05:38:23;8.75;;;4.32;;
5981;SDS011;3018;48.730;9.336;2023-08-12T05:40:49;5.22;;;4.18;;
5981;SDS011;3018;48.730;9.336;2023-08-12T05:43:16;5.85;;;4.53;;
5981;SDS011;3018;48.730;9.336;2023-08-12T05:45:42;5.63;;;4.82;;
5981;SDS011;3018;48.730;9.336;2023-08-12T05:48:08;7.47;;;5.25;;
5981;SDS011;3018;48.730;9.336;2023-08-12T05:50:34;5.22;;;4.75;;
5981;SDS011;3018;48.730;9.336;2023-08-12T05:53:01;9.20;;;5.43;;
5981;SDS011;3018;48.730;9.336;2023-08-12T05:55:28;5.35;;;4.60;;
5981;SDS011;3018;48.730;9.336;2023-08-12T05:57:55;7.82;;;4.95;;
5981;SDS011;3018;48.730;9.336;2023-08-12T06:00:21;5.15;;;4.70;;
5981;SDS011;3018;48.730;9.336;2023-08-12T06:02:47;4.97;;;4.57;;
5981;SDS011;3018;48.730;9.336;2023-08-12T06:05:14;6.30;;;4.82;;
5981;SDS011;3018;48.730;9.336;2023-08-12T06:07:40;7.40;;;4.70;;
5981;SDS011;3018;48.730;9.336;2023-08-12T06:10:06;5.40;;;4.90;;
5981;SDS011;3018;48.730;9.336;2023-08-12T06:12:34;5.20;;;4.53;;
5981;SDS011;3018;48.730;9.336;2023-08-12T06:15:00;8.98;;;4.90;;
5981;SDS011;3018;48.730;9.336;2023-08-12T06:17:27;6.88;;;5.43;;
5981;SDS011;3018;48.730;9.336;2023-08-12T06:19:53;6.90;;;4.78;;
5981;SDS011;3018;48.730;9.336;2023-08-12T06:22:19;5.30;;;4.90;;
5981;SDS011;3018;48.730;9.336;2023-08-12T06:24:46;5.35;;;4.65;;
5981;SDS011;3018;48.730;9.336;2023-08-12T06:27:12;7.10;;;4.95;;
5981;SDS011;3018;48.730;9.336;2023-08-12T06:29:39;4.93;;;4.63;;
5981;SDS011;3018;48.730;9.336;2023-08-12T06:32:06;5.65;;;5.15;;
5981;SDS011;3018;48.730;9.336;2023-08-12T06:34:32;5.50;;;5.00;;
5981;SDS011;3018;48.730;9.336;2023-08-12T06:36:58;5.57;;;5.05;;
5981;SDS011;3018;48.730;9.336;2023-08-12T06:39:24;7.07;;;5.00;;
5981;SDS011;3018;48.730;9.336;2023-08-12T06:41:51;7.68;;;5.40;;
5981;SDS011;3018;48.730;9.336;2023-08-12T06:44:17;5.85;;;5.10;;
5981;SDS011;3018;48.730;9.336;2023-08-12T06:46:45;9.40;;;5.00;;
5981;SDS011;3018;48.730;9.336;2023-08-12T06:49:11;6.03;;;4.75;;
5981;SDS011;3018;48.730;9.336;2023-08-12T06:51:37;5.30;;;4.80;;
5981;SDS011;3018;48.730;9.336;2023-08-12T06:54:04;5.35;;;4.95;;
5981;SDS011;3018;48.730;9.336;2023-08-12T06:56:30;5.07;;;4.78;;
5981;SDS011;3018;48.730;9.336;2023-08-12T06:58:56;5.82;;;4.97;;
5981;SDS011;3018;48.730;9.336;2023-08-12T07:01:23;7.15;;;4.90;;
5981;SDS011;3018;48.730;9.336;2023-08-12T07:03:50;11.90;;;5.43;;
5981;SDS011;3018;48.730;9.336;2023-08-12T07:06:17;6.05;;;5.28;;
5981;SDS011;3018;48.730;9.336;2023-08-12T07:08:43;6.03;;;5.30;;
5981;SDS011;3018;48.730;9.336;2023-08-12T07:11:10;6.35;;;5.20;;
5981;SDS011;3018;48.730;9.336;2023-08-12T07:13:36;6.15;;;5.20;;
5981;SDS011;3018;48.730;9.336;2023-08-12T07:16:02;6.63;;;5.07;;
5981;SDS011;3018;48.730;9.336;2023-08-12T07:18:29;9.13;;;5.20;;
5981;SDS011;3018;48.730;9.336;2023-08-12T07:20:57;6.47;;;4.85;;
5981;SDS011;3018;48.730;9.336;2023-08-12T07:23:24;5.97;;;4.85;;
5981;SDS011;3018;48.730;9.336;2023-08-12T07:25:51;5.18;;;4.78;;
5981;SDS011;3018;48.730;9.336;2023-08-12T07:28:17;7.30;;;4.95;;
5981;SDS011;3018;48.730;9.336;2023-08-12T07:30:43;6.10;;;4.57;;
5981;SDS011;3018;48.730;9.336;2023-08-12T07:33:10;5.15;;;4.35;;
5981;SDS011;3018;48.730;9.336;2023-08-12T07:35:36;5.15;;;4.57;;
5981;SDS011;3018;48.730;9.336;2023-08-12T07:38:04;7.35;;;4.18;;
5981;SDS011;3018;48.730;9.336;2023-08-12T07:40:30;7.30;;;4.60;;
5981;SDS011;3018;48.730;9.336;2023-08-12T07:42:56;6.00;;;4.25;;
5981;SDS011;3018;48.730;9.336;2023-08-12T07:45:22;4.75;;;4.38;;
5981;SDS011;3018;48.730;9.336;2023-08-12T07:47:49;5.47;;;4.63;;
5981;SDS011;3018;48.730;9.336;2023-08-12T07:50:15;6.80;;;4.70;;
5981;SDS011;3018;48.730;9.336;2023-08-12T07:52:41;6.10;;;4.63;;
5981;SDS011;3018;48.730;9.336;2023-08-12T07:55:09;8.20;;;4.55;;
5981;SDS011;3018;48.730;9.336;2023-08-12T07:57:35;12.02;;;4.53;;
5981;SDS011;3018;48.730;9.336;2023-08-12T08:00:02;5.18;;;4.05;;
5981;SDS011;3018;48.730;9.336;2023-08-12T08:02:30;6.75;;;4.30;;
5981;SDS011;3018;48.730;9.336;2023-08-12T08:04:56;4.22;;;3.83;;
5981;SDS011;3018;48.730;9.336;2023-08-12T08:07:22;7.82;;;4.25;;
5981;SDS011;3018;48.730;9.336;2023-08-12T08:09:49;6.30;;;3.65;;
5981;SDS011;3018;48.730;9.336;2023-08-12T08:12:18;6.38;;;4.15;;
5981;SDS011;3018;48.730;9.336;2023-08-12T08:14:44;4.60;;;4.30;;
5981;SDS011;3018;48.730;9.336;2023-08-12T08:17:10;4.55;;;4.18;;
5981;SDS011;3018;48.730;9.336;2023-08-12T08:19:37;7.65;;;3.88;;
5981;SDS011;3018;48.730;9.336;2023-08-12T08:22:03;5.00;;;3.75;;
5981;SDS011;3018;48.730;9.336;2023-08-12T08:24:30;4.40;;;3.90;;
5981;SDS011;3018;48.730;9.336;2023-08-12T08:26:56;5.85;;;4.15;;
5981;SDS011;3018;48.730;9.336;2023-08-12T08:29:24;6.65;;;3.67;;
5981;SDS011;3018;48.730;9.336;2023-08-12T08:31:50;4.93;;;3.63;;
5981;SDS011;3018;48.730;9.336;2023-08-12T08:34:16;4.82;;;4.40;;
5981;SDS011;3018;48.730;9.336;2023-08-12T08:36:42;5.90;;;3.97;;
5981;SDS011;3018;48.730;9.336;2023-08-12T08:39:09;4.95;;;4.05;;
5981;SDS011;3018;48.730;9.336;2023-08-12T08:41:37;5.80;;;3.80;;
5981;SDS011;3018;48.730;9.336;2023-08-12T08:44:05;4.95;;;4.25;;
5981;SDS011;3018;48.730;9.336;2023-08-12T08:46:34;6.97;;;4.05;;
5981;SDS011;3018;48.730;9.336;2023-08-12T08:49:00;5.72;;;3.83;;
5981;SDS011;3018;48.730;9.336;2023-08-12T08:51:27;3.65;;;3.42;;
5981;SDS011;3018;48.730;9.336;2023-08-12T08:53:53;7.30;;;4.20;;
5981;SDS011;3018;48.730;9.336;2023-08-12T08:56:20;5.05;;;3.95;;
5981;SDS011;3018;48.730;9.336;2023-08-12T08:58:47;4.90;;;3.63;;
5981;SDS011;3018;48.730;9.336;2023-08-12T09:01:13;3.60;;;3.40;;
5981;SDS011;3018;48.730;9.336;2023-08-12T09:03:41;3.80;;;3.35;;
5981;SDS011;3018;48.730;9.336;2023-08-12T09:06:08;4.05;;;3.65;;
5981;SDS011;3018;48.730;9.336;2023-08-12T09:08:35;4.50;;;3.78;;
5981;SDS011;3018;48.730;9.336;2023-08-12T09:11:01;3.92;;;3.40;;
5981;SDS011;3018;48.730;9.336;2023-08-12T09:13:28;3.63;;;3.33;;
5981;SDS011;3018;48.730;9.336;2023-08-12T09:15:55;3.90;;;3.63;;
5981;SDS011;3018;48.730;9.336;2023-08-12T09:18:22;3.85;;;3.55;;
5981;SDS011;3018;48.730;9.336;2023-08-12T09:20:50;3.75;;;3.08;;
5981;SDS011;3018;48.730;9.336;2023-08-12T09:23:17;4.28;;;3.50;;
5981;SDS011;3018;48.730;9.336;2023-08-12T09:25:43;4.22;;;3.80;;
5981;SDS011;3018;48.730;9.336;2023-08-12T09:28:10;3.50;;;3.17;;
5981;SDS011;3018;48.730;9.336;2023-08-12T09:30:37;6.88;;;3.33;;
5981;SDS011;3018;48.730;9.336;2023-08-12T09:33:04;3.63;;;3.30;;
5981;SDS011;3018;48.730;9.336;2023-08-12T09:35:33;3.22;;;3.03;;
5981;SDS011;3018;48.730;9.336;2023-08-12T09:38:01;4.20;;;3.10;;
5981;SDS011;3018;48.730;9.336;2023-08-12T09:40:28;3.53;;;3.22;;
5981;SDS011;3018;48.730;9.336;2023-08-12T09:42:55;3.92;;;3.25;;
5981;SDS011;3018;48.730;9.336;2023-08-12T09:45:23;3.50;;;3.25;;
5981;SDS011;3018;48.730;9.336;2023-08-12T09:47:49;3.80;;;3.45;;
5981;SDS011;3018;48.730;9.336;2023-08-12T09:50:15;3.75;;;3.40;;
5981;SDS011;3018;48.730;9.336;2023-08-12T09:52:42;2.75;;;2.63;;
5981;SDS011;3018;48.730;9.336;2023-08-12T09:55:10;8.70;;;3.38;;
5981;SDS011;3018;48.730;9.336;2023-08-12T09:57:37;3.10;;;2.90;;
5981;SDS011;3018;48.730;9.336;2023-08-12T10:00:08;2.97;;;2.70;;
5981;SDS011;3018;48.730;9.336;2023-08-12T10:02:38;4.75;;;3.00;;
5981;SDS011;3018;48.730;9.336;2023-08-12T10:05:05;3.35;;;3.10;;
5981;SDS011;3018;48.730;9.336;2023-08-12T10:07:32;3.05;;;2.80;;
5981;SDS011;3018;48.730;9.336;2023-08-12T10:09:58;2.70;;;2.45;;
5981;SDS011;3018;48.730;9.336;2023-08-12T10:12:26;3.00;;;2.80;;
5981;SDS011;3018;48.730;9.336;2023-08-12T10:14:52;3.25;;;2.70;;
5981;SDS011;3018;48.730;9.336;2023-08-12T10:17:19;4.43;;;2.50;;
5981;SDS011;3018;48.730;9.336;2023-08-12T10:19:46;2.83;;;2.60;;
5981;SDS011;3018;48.730;9.336;2023-08-12T10:22:12;2.40;;;2.20;;
5981;SDS011;3018;48.730;9.336;2023-08-12T10:24:39;2.78;;;2.58;;
5981;SDS011;3018;48.730;9.336;2023-08-12T10:27:08;2.42;;;2.33;;
5981;SDS011;3018;48.730;9.336;2023-08-12T10:29:37;3.45;;;2.22;;
5981;SDS011;3018;48.730;9.336;2023-08-12T10:32:04;4.75;;;2.25;;
5981;SDS011;3018;48.730;9.336;2023-08-12T10:34:30;2.40;;;2.20;;
5981;SDS011;3018;48.730;9.336;2023-08-12T10:36:58;3.40;;;2.78;;
5981;SDS011;3018;48.730;9.336;2023-08-12T10:39:26;2.22;;;2.10;;
5981;SDS011;3018;48.730;9.336;2023-08-12T10:41:54;2.20;;;2.10;;
5981;SDS011;3018;48.730;9.336;2023-08-12T10:44:21;3.05;;;2.47;;
5981;SDS011;3018;48.730;9.336;2023-08-12T10:46:53;2.33;;;2.08;;
5981;SDS011;3018;48.730;9.336;2023-08-12T10:49:20;3.67;;;2.20;;
5981;SDS011;3018;48.730;9.336;2023-08-12T10:51:48;2.90;;;2.10;;
5981;SDS011;3018;48.730;9.336;2023-08-12T10:54:14;2.30;;;2.10;;
5981;SDS011;3018;48.730;9.336;2023-08-12T11:02:11;2.08;;;2.00;;
5981;SDS011;3018;48.730;9.336;2023-08-12T11:04:39;2.80;;;2.67;;
5981;SDS011;3018;48.730;9.336;2023-08-12T11:07:14;3.25;;;2.60;;
5981;SDS011;3018;48.730;9.336;2023-08-12T11:09:40;5.00;;;2.70;;
5981;SDS011;3018;48.730;9.336;2023-08-12T11:12:06;2.80;;;2.60;;
5981;SDS011;3018;48.730;9.336;2023-08-12T11:14:38;3.30;;;2.45;;
5981;SDS011;3018;48.730;9.336;2023-08-12T11:17:14;3.45;;;2.47;;
5981;SDS011;3018;48.730;9.336;2023-08-12T11:19:41;2.72;;;2.50;;
5981;SDS011;3018;48.730;9.336;2023-08-12T11:22:07;5.13;;;2.15;;
5981;SDS011;3018;48.730;9.336;2023-08-12T11:24:34;2.95;;;2.85;;
5981;SDS011;3018;48.730;9.336;2023-08-12T11:27:02;5.72;;;2.45;;
5981;SDS011;3018;48.730;9.336;2023-08-12T11:29:28;3.20;;;2.58;;
5981;SDS011;3018;48.730;9.336;2023-08-12T11:31:54;3.03;;;2.60;;
5981;SDS011;3018;48.730;9.336;2023-08-12T11:34:22;3.58;;;2.22;;
5981;SDS011;3018;48.730;9.336;2023-08-12T11:36:48;2.67;;;2.58;;
5981;SDS011;3018;48.730;9.336;2023-08-12T11:39:15;2.58;;;2.47;;
5981;SDS011;3018;48.730;9.336;2023-08-12T11:41:41;2.20;;;2.10;;
5981;SDS011;3018;48.730;9.336;2023-08-12T11:44:11;2.40;;;2.20;;
5981;SDS011;3018;48.730;9.336;2023-08-12T11:46:37;2.42;;;2.22;;
5981;SDS011;3018;48.730;9.336;2023-08-12T11:49:03;2.30;;;2.20;;
5981;SDS011;3018;48.730;9.336;2023-08-12T11:51:31;2.58;;;2.22;;
5981;SDS011;3018;48.730;9.336;2023-08-12T11:53:57;2.83;;;2.15;;
5981;SDS011;3018;48.730;9.336;2023-08-12T11:56:23;3.60;;;2.53;;
5981;SDS011;3018;48.730;9.336;2023-08-12T11:58:51;3.08;;;2.80;;
5981;SDS011;3018;48.730;9.336;2023-08-12T12:01:18;2.80;;;2.40;;
5981;SDS011;3018;48.730;9.336;2023-08-12T12:03:44;5.40;;;2.38;;
5981;SDS011;3018;48.730;9.336;2023-08-12T12:06:12;2.97;;;2.70;;
5981;SDS011;3018;48.730;9.336;2023-08-12T12:08:39;4.65;;;2.50;;
5981;SDS011;3018;48.730;9.336;2023-08-12T12:11:06;2.67;;;2.20;;
5981;SDS011;3018;48.730;9.336;2023-08-12T12:13:32;3.90;;;2.40;;
5981;SDS011;3018;48.730;9.336;2023-08-12T12:16:00;2.40;;;2.30;;
5981;SDS011;3018;48.730;9.336;2023-08-12T12:18:26;3.50;;;2.30;;
5981;SDS011;3018;48.730;9.336;2023-08-12T12:20:54;4.75;;;2.55;;
5981;SDS011;3018;48.730;9.336;2023-08-12T12:23:20;2.80;;;2.25;;
5981;SDS011;3018;48.730;9.336;2023-08-12T12:25:48;3.10;;;2.35;;
5981;SDS011;3018;48.730;9.336;2023-08-12T12:28:14;2.50;;;2.30;;
5981;SDS011;3018;48.730;9.336;2023-08-12T12:30:40;5.57;;;2.60;;
5981;SDS011;3018;48.730;9.336;2023-08-12T12:33:07;2.65;;;1.95;;
5981;SDS011;3018;48.730;9.336;2023-08-12T12:35:33;5.57;;;2.42;;
5981;SDS011;3018;48.730;9.336;2023-08-12T12:37:59;6.50;;;2.55;;
5981;SDS011;3018;48.730;9.336;2023-08-12T12:40:26;4.47;;;2.33;;
5981;SDS011;3018;48.730;9.336;2023-08-12T12:42:53;7.25;;;3.00;;
5981;SDS011;3018;48.730;9.336;2023-08-12T12:45:20;5.13;;;3.00;;
5981;SDS011;3018;48.730;9.336;2023-08-12T12:47:46;3.55;;;2.20;;
5981;SDS011;3018;48.730;9.336;2023-08-12T12:50:12;5.13;;;2.45;;
5981;SDS011;3018;48.730;9.336;2023-08-12T12:52:38;3.17;;;2.80;;
5981;SDS011;3018;48.730;9.336;2023-08-12T12:55:05;4.20;;;2.15;;
5981;SDS011;3018;48.730;9.336;2023-08-12T12:57:31;6.88;;;2.75;;
5981;SDS011;3018;48.730;9.336;2023-08-12T12:59:59;7.65;;;3.60;;
5981;SDS011;3018;48.730;9.336;2023-08-12T13:02:25;6.88;;;3.55;;
5981;SDS011;3018;48.730;9.336;2023-08-12T13:04:51;11.10;;;3.30;;
5981;SDS011;3018;48.730;9.336;2023-08-12T13:07:18;6.90;;;3.22;;
5981;SDS011;3018;48.730;9.336;2023-08-12T13:09:44;6.13;;;3.25;;
5981;SDS011;3018;48.730;9.336;2023-08-12T13:12:10;5.75;;;2.92;;
5981;SDS011;3018;48.730;9.336;2023-08-12T13:14:36;4.53;;;2.72;;
5981;SDS011;3018;48.730;9.336;2023-08-12T13:17:04;7.28;;;2.85;;
5981;SDS011;3018;48.730;9.336;2023-08-12T13:19:30;3.03;;;2.80;;
5981;SDS011;3018;48.730;9.336;2023-08-12T13:21:57;4.28;;;3.08;;
5981;SDS011;3018;48.730;9.336;2023-08-12T13:24:23;3.92;;;3.03;;
5981;SDS011;3018;48.730;9.336;2023-08-12T13:26:49;5.40;;;2.97;;
5981;SDS011;3018;48.730;9.336;2023-08-12T13:29:17;4.65;;;3.05;;
5981;SDS011;3018;48.730;9.336;2023-08-12T13:31:43;3.38;;;2.97;;
5981;SDS011;3018;48.730;9.336;2023-08-12T13:34:12;4.97;;;3.00;;
5981;SDS011;3018;48.730;9.336;2023-08-12T13:36:38;3.55;;;2.92;;
5981;SDS011;3018;48.730;9.336;2023-08-12T13:39:04;3.90;;;3.17;;
5981;SDS011;3018;48.730;9.336;2023-08-12T13:41:31;5.22;;;3.55;;
5981;SDS011;3018;48.730;9.336;2023-08-12T13:43:57;3.53;;;3.33;;
5981;SDS011;3018;48.730;9.336;2023-08-12T13:46:23;4.32;;;3.40;;
5981;SDS011;3018;48.730;9.336;2023-08-12T13:48:50;6.25;;;3.35;;
5981;SDS011;3018;48.730;9.336;2023-08-12T13:51:17;4.20;;;3.80;;
5981;SDS011;3018;48.730;9.336;2023-08-12T13:53:44;6.18;;;3.78;;
5981;SDS011;3018;48.730;9.336;2023-08-12T13:56:10;4.38;;;3.92;;
5981;SDS011;3018;48.730;9.336;2023-08-12T13:58:36;4.43;;;3.80;;
5981;SDS011;3018;48.730;9.336;2023-08-12T14:01:02;4.78;;;3.92;;
5981;SDS011;3018;48.730;9.336;2023-08-12T14:03:29;4.22;;;3.83;;
5981;SDS011;3018;48.730;9.336;2023-08-12T14:05:55;3.95;;;3.53;;
5981;SDS011;3018;48.730;9.336;2023-08-12T14:08:23;3.95;;;2.53;;
5981;SDS011;3018;48.730;9.336;2023-08-12T14:10:49;5.22;;;2.58;;
5981;SDS011;3018;48.730;9.336;2023-08-12T14:13:16;4.97;;;2.85;;
5981;SDS011;3018;48.730;9.336;2023-08-12T14:15:42;4.40;;;2.80;;
5981;SDS011;3018;48.730;9.336;2023-08-12T14:18:08;2.58;;;2.38;;
5981;SDS011;3018;48.730;9.336;2023-08-12T14:20:34;4.72;;;2.90;;
5981;SDS011;3018;48.730;9.336;2023-08-12T14:23:01;3.78;;;2.25;;
5981;SDS011;3018;48.730;9.336;2023-08-12T14:25:28;3.63;;;2.40;;
5981;SDS011;3018;48.730;9.336;2023-08-12T14:27:55;3.70;;;2.22;;
5981;SDS011;3018;48.730;9.336;2023-08-12T14:30:23;2.58;;;1.90;;
5981;SDS011;3018;48.730;9.336;2023-08-12T14:32:49;3.45;;;2.10;;
5981;SDS011;3018;48.730;9.336;2023-08-12T14:35:16;5.53;;;1.80;;
5981;SDS011;3018;48.730;9.336;2023-08-12T14:37:42;4.82;;;1.65;;
5981;SDS011;3018;48.730;9.336;2023-08-12T14:40:09;1.73;;;1.58;;
5981;SDS011;3018;48.730;9.336;2023-08-12T14:42:37;1.85;;;1.60;;
5981;SDS011;3018;48.730;9.336;2023-08-12T14:45:03;2.60;;;1.65;;
5981;SDS011;3018;48.730;9.336;2023-08-12T14:47:29;1.70;;;1.60;;
5981;SDS011;3018;48.730;9.336;2023-08-12T14:49:56;4.32;;;1.33;;
5981;SDS011;3018;48.730;9.336;2023-08-12T14:52:22;2.17;;;1.40;;
5981;SDS011;3018;48.730;9.336;2023-08-12T14:54:49;1.10;;;1.10;;
5981;SDS011;3018;48.730;9.336;2023-08-12T14:57:15;1.13;;;1.13;;
5981;SDS011;3018;48.730;9.336;2023-08-12T14:59:42;2.58;;;1.25;;
5981;SDS011;3018;48.730;9.336;2023-08-12T15:02:09;2.40;;;1.20;;
5981;SDS011;3018;48.730;9.336;2023-08-12T15:04:35;3.67;;;1.25;;
5981;SDS011;3018;48.730;9.336;2023-08-12T15:07:01;1.33;;;1.30;;
5981;SDS011;3018;48.730;9.336;2023-08-12T15:09:28;3.65;;;1.90;;
5981;SDS011;3018;48.730;9.336;2023-08-12T15:11:54;1.52;;;1.42;;
5981;SDS011;3018;48.730;9.336;2023-08-12T15:14:20;1.90;;;1.77;;
5981;SDS011;3018;48.730;9.336;2023-08-12T15:16:48;2.20;;;1.50;;
5981;SDS011;3018;48.730;9.336;2023-08-12T15:19:14;2.90;;;1.67;;